Enrose, Idaho
Current Conditions -  °F | °C
As of 9:55 AM on Monday 22 Dec 2014 (Local Time) from KEUL Reporting Station
Overcast Overcast  
Wind Chill: 34°   Ceiling: 4300
Heat Index: 39°   Visibility: 10mi
Dew Point: 34°   Wind: 7mph
Humidity: 81%   Direction: 250°WSW
Pressure: 30.16"   Gusts: NA
Location:  43.676°N, 116.752°W
Report Text: KEUL 221655Z AUTO 25006KT 10SM BKN043 OVC050 04/01 A3016 RMK AO1
Loading
Personal Weather Stations






























Interactive Weather Map New forecast layout! Learn more

10-Day Weather Forecast

Advertisements
Track Severe Weather on mobile